sim
Sign-in with your pilot id or email,
or register
Callsign
Passwort

Schedule Details

Flight Number: OEO4937
Departure: Milan Linate Airport (LIML) at 16:10
Arrival: Munich Airport (EDDM) at 17:20

Weather Information
Getting current METAR information for LIML 221920Z 17005KT 8000 BKN070 18/17 Q1012 NOSIG
Getting current METAR information for EDDM 221920Z VRB02KT CAVOK 17/15 Q1010 NOSIG

Schedule Frequency

Route Map